Time;durP1;ratioP1;P1;durP2;ratioP2;P2;SDS_P1;SDS_P2;PMS_P1;PMS_P2;Temp;Humidity;BMP_temperature;BMP_pressure;BME280_temperature;BME280_humidity;BME280_pressure;Samples;Min_cycle;Max_cycle;Signal;HPM_P1;HPM_P2
2023/01/06 00:00:01;;;;;;;5.50;1.97;;;;;;;-144.22;100.00;60274.75;6293377;28;20678;-67
2023/01/06 00:03:07;;;;;;;6.57;1.60;;;;;;;-144.22;100.00;60274.75;6294486;28;20229;-68
2023/01/06 00:06:12;;;;;;;3.37;1.83;;;;;;;-144.22;100.00;60274.75;6273570;28;20222;-68
2023/01/06 00:09:14;;;;;;;8.50;2.20;;;;;;;-144.22;100.00;60274.75;6270813;28;20736;-68
2023/01/06 00:12:16;;;;;;;4.60;1.80;;;;;;;-144.22;100.00;60274.75;6275729;28;20799;-68
2023/01/06 00:15:18;;;;;;;6.23;2.37;;;;;;;-144.22;100.00;60274.75;6290326;28;20214;-68
2023/01/06 00:18:20;;;;;;;7.93;2.03;;;;;;;-144.22;100.00;60274.75;6292151;28;20320;-68
2023/01/06 00:21:24;;;;;;;4.63;1.80;;;;;;;7.47;100.00;60274.75;6290067;28;20617;-69
2023/01/06 00:24:26;;;;;;;6.07;1.67;;;;;;;-144.22;100.00;60274.75;6291900;28;20579;-68
2023/01/06 00:27:30;;;;;;;6.03;2.10;;;;;;;-144.22;100.00;60274.75;6275674;28;20236;-68
2023/01/06 00:30:32;;;;;;;6.00;2.43;;;;;;;-144.22;100.00;60274.75;6260118;28;20593;-68
2023/01/06 00:33:35;;;;;;;7.17;2.03;;;;;;;-144.22;100.00;60274.75;6276179;28;20693;-68
2023/01/06 00:36:37;;;;;;;6.77;2.10;;;;;;;-144.22;100.00;60274.75;6289688;28;20636;-68
2023/01/06 00:39:39;;;;;;;5.33;1.93;;;;;;;7.41;100.00;60274.75;6291721;28;20309;-68
2023/01/06 00:42:41;;;;;;;7.47;2.00;;;;;;;-144.22;100.00;60274.75;6274802;28;20299;-68
2023/01/06 00:45:44;;;;;;;5.47;2.00;;;;;;;-144.22;100.00;60274.75;6289883;28;20611;-68
2023/01/06 00:48:46;;;;;;;10.33;1.97;;;;;;;-144.22;100.00;60274.75;6271482;28;20237;-68
2023/01/06 00:52:08;;;;;;;4.90;1.73;;;;;;;-144.22;100.00;60274.75;6292021;28;20237;-68
2023/01/06 00:55:10;;;;;;;5.47;1.73;;;;;;;-144.22;100.00;60274.75;6289641;28;20232;-69
2023/01/06 00:58:12;;;;;;;6.50;2.00;;;;;;;188.01;100.00;60274.75;6274366;28;20664;-68
2023/01/06 01:01:14;;;;;;;4.13;1.50;;;;;;;-144.22;100.00;60274.75;6294572;28;20842;-68
2023/01/06 01:04:17;;;;;;;4.73;1.37;;;;;;;-144.22;100.00;60274.75;6273484;28;20234;-68
2023/01/06 01:07:19;;;;;;;5.37;1.53;;;;;;;-144.22;100.00;60274.75;6269348;28;20655;-68
2023/01/06 01:10:21;;;;;;;7.87;2.03;;;;;;;-144.22;100.00;60274.75;6269290;28;20230;-68
2023/01/06 01:13:23;;;;;;;7.57;1.70;;;;;;;-144.22;100.00;60274.75;6254703;28;20379;-67
2023/01/06 01:16:25;;;;;;;6.63;2.30;;;;;;;6.75;100.00;60274.75;6274675;28;20222;-68
2023/01/06 01:19:28;;;;;;;7.17;1.83;;;;;;;-144.22;100.00;60274.75;6253737;28;20257;-68
2023/01/06 01:22:31;;;;;;;3.90;1.87;;;;;;;-144.22;100.00;60274.75;6272252;28;20299;-68
2023/01/06 01:25:34;;;;;;;9.20;2.30;;;;;;;-144.22;100.00;60274.75;6256442;28;20320;-67
2023/01/06 01:28:36;;;;;;;4.03;1.40;;;;;;;-144.22;100.00;60274.75;6288207;28;20388;-68
2023/01/06 01:31:39;;;;;;;6.33;2.30;;;;;;;-144.22;100.00;60274.75;6292172;28;20676;-68
2023/01/06 01:34:41;;;;;;;10.03;2.20;;;;;;;-144.22;100.00;60274.75;6290232;28;20244;-68
2023/01/06 01:37:43;;;;;;;7.00;2.13;;;;;;;-144.22;100.00;60274.75;6272761;28;20667;-68
2023/01/06 01:40:49;;;;;;;5.53;1.73;;;;;;;-144.22;100.00;60274.75;6272559;28;20652;-68
2023/01/06 01:43:59;;;;;;;9.00;1.93;;;;;;;-144.22;100.00;60274.75;6269740;28;20237;-68
2023/01/06 01:47:02;;;;;;;6.53;2.20;;;;;;;-144.22;100.00;60274.75;6275476;28;20233;-68
2023/01/06 01:50:45;;;;;;;7.97;2.33;;;;;;;-144.22;100.00;60274.75;6255279;28;20229;-69
2023/01/06 01:53:50;;;;;;;11.20;2.23;;;;;;;-144.22;100.00;60274.75;6283772;28;20227;-68
2023/01/06 01:56:59;;;;;;;4.77;1.90;;;;;;;-144.22;100.00;60274.75;6288937;28;20759;-68
2023/01/06 02:00:06;;;;;;;7.77;2.33;;;;;;;-144.22;100.00;60274.75;6268123;28;20236;-67
2023/01/06 02:03:14;;;;;;;8.07;2.00;;;;;;;6.66;100.00;60274.75;6288389;28;20249;-68
2023/01/06 02:06:23;;;;;;;6.27;2.37;;;;;;;-144.22;100.00;60274.75;6288304;28;20214;-68
2023/01/06 02:09:50;;;;;;;8.83;2.37;;;;;;;-144.22;100.00;60274.75;6291054;28;20321;-68
2023/01/06 02:12:56;;;;;;;8.30;1.77;;;;;;;6.55;100.00;60274.75;6288248;28;20310;-68
2023/01/06 02:16:25;;;;;;;9.73;1.97;;;;;;;-144.22;100.00;60274.75;6275083;28;20636;-68
2023/01/06 02:20:07;;;;;;;5.73;2.33;;;;;;;-144.22;100.00;60274.75;6255409;28;20240;-68
2023/01/06 02:23:19;;;;;;;5.80;2.10;;;;;;;-144.22;100.00;60274.75;6272998;28;20283;-68
2023/01/06 02:26:36;;;;;;;9.50;1.93;;;;;;;6.62;100.00;60274.75;6267224;28;20237;-68
2023/01/06 02:30:04;;;;;;;9.27;2.27;;;;;;;-144.22;100.00;60274.75;6273395;28;20224;-69
2023/01/06 02:33:14;;;;;;;5.47;1.83;;;;;;;-144.22;100.00;60274.75;6278948;28;20631;-68
2023/01/06 02:36:35;;;;;;;8.77;2.10;;;;;;;-144.22;100.00;60274.75;6291350;28;20220;-68
2023/01/06 02:40:07;;;;;;;10.40;2.10;;;;;;;-144.22;100.00;60274.75;6279661;28;20304;-67
2023/01/06 02:43:23;;;;;;;5.83;2.03;;;;;;;-144.22;100.00;60274.75;6272101;28;20260;-68
2023/01/06 02:46:43;;;;;;;5.83;1.73;;;;;;;-144.22;100.00;60274.75;6278169;28;20236;-68
2023/01/06 02:49:45;;;;;;;7.23;1.87;;;;;;;-144.22;100.00;60274.75;6277769;28;20286;-68
2023/01/06 02:53:11;;;;;;;7.30;1.77;;;;;;;-144.22;100.00;60274.75;6290451;28;20237;-68
2023/01/06 02:56:14;;;;;;;5.10;2.20;;;;;;;6.24;100.00;60274.75;6273481;28;20364;-68
2023/01/06 02:59:33;;;;;;;6.60;1.90;;;;;;;-144.22;100.00;60274.75;6275860;28;20697;-68
2023/01/06 03:02:41;;;;;;;5.23;1.60;;;;;;;-144.22;100.00;60274.75;6294428;28;20238;-68
2023/01/06 03:05:48;;;;;;;7.33;1.90;;;;;;;188.01;100.00;60274.75;6276620;28;20374;-68
2023/01/06 03:08:54;;;;;;;9.23;2.23;;;;;;;-144.22;100.00;60274.75;6280707;28;20250;-68
2023/01/06 03:12:00;;;;;;;7.90;1.77;;;;;;;-144.22;100.00;60274.75;6273955;28;20717;-68
2023/01/06 03:15:04;;;;;;;8.97;2.07;;;;;;;-144.22;100.00;60274.75;6272765;28;20236;-67
2023/01/06 03:18:07;;;;;;;4.77;2.00;;;;;;;-144.22;100.00;60274.75;6275135;28;20561;-68
2023/01/06 03:21:19;;;;;;;8.27;1.90;;;;;;;-144.22;100.00;60274.75;6291070;28;20858;-68
2023/01/06 03:24:21;;;;;;;5.70;2.43;;;;;;;-144.22;100.00;60274.75;6281034;28;20238;-67
2023/01/06 03:27:25;;;;;;;9.37;2.60;;;;;;;5.96;100.00;103558.78;6272703;28;20586;-68
2023/01/06 03:30:41;;;;;;;9.17;2.20;;;;;;;-144.22;100.00;60274.75;6272787;28;20295;-68
2023/01/06 03:33:46;;;;;;;7.13;2.30;;;;;;;-144.22;100.00;60274.75;6291496;28;20232;-68
2023/01/06 03:37:03;;;;;;;7.13;2.27;;;;;;;-144.22;100.00;60274.75;6258464;28;20244;-68
2023/01/06 03:40:15;;;;;;;8.03;1.83;;;;;;;-144.22;100.00;60274.75;6257070;28;20274;-69
2023/01/06 03:43:42;;;;;;;10.30;2.13;;;;;;;5.74;100.00;60274.75;6263844;28;20235;-67
2023/01/06 03:46:53;;;;;;;4.73;1.80;;;;;;;-144.22;100.00;60274.75;6294186;28;20243;-68
2023/01/06 03:50:06;;;;;;;6.43;2.10;;;;;;;-144.22;100.00;60274.75;6287048;28;20242;-68
2023/01/06 03:53:15;;;;;;;9.60;2.93;;;;;;;-144.22;100.00;60274.75;6272658;28;20228;-68
2023/01/06 03:56:24;;;;;;;11.80;2.27;;;;;;;-144.22;100.00;60274.75;6277876;28;20234;-68
2023/01/06 03:59:31;;;;;;;8.60;2.17;;;;;;;-144.22;100.00;60274.75;6273699;28;20253;-68
2023/01/06 04:02:36;;;;;;;9.00;2.03;;;;;;;-144.22;100.00;60274.75;6276151;28;20350;-68
2023/01/06 04:05:39;;;;;;;4.63;1.40;;;;;;;-144.22;100.00;60274.75;6274002;28;20568;-68
2023/01/06 04:08:42;;;;;;;7.57;2.20;;;;;;;-144.22;100.00;60274.75;6290143;28;20222;-68
2023/01/06 04:15:14;;;;;;;4.97;1.60;;;;;;;-144.22;100.00;60274.75;6290510;28;20763;-68
2023/01/06 04:18:19;;;;;;;7.03;2.03;;;;;;;-144.22;100.00;60274.75;6276919;28;20229;-68
2023/01/06 04:21:22;;;;;;;6.20;1.60;;;;;;;5.85;100.00;60274.75;6272319;28;20253;-68
2023/01/06 04:24:24;;;;;;;5.37;1.90;;;;;;;-144.22;100.00;60274.75;6290305;28;20594;-68
2023/01/06 04:27:26;;;;;;;7.77;1.93;;;;;;;-144.22;100.00;60274.75;6269262;28;20222;-68
2023/01/06 04:30:28;;;;;;;4.93;1.73;;;;;;;-144.22;100.00;60274.75;6272584;28;20598;-68
2023/01/06 04:33:30;;;;;;;6.87;2.33;;;;;;;8.77;100.00;60274.75;6291370;28;20251;-68
2023/01/06 04:36:35;;;;;;;9.90;2.07;;;;;;;-144.22;100.00;60274.75;6289016;28;20225;-68
2023/01/06 04:39:37;;;;;;;4.60;1.80;;;;;;;-144.22;100.00;60274.75;6271190;28;20233;-68
2023/01/06 04:46:00;;;;;;;8.13;2.10;;;;;;;-144.22;100.00;60274.75;6290748;28;20275;-68
2023/01/06 04:49:02;;;;;;;12.97;1.90;;;;;;;-144.22;100.00;60274.75;6289680;28;20233;-68
2023/01/06 04:52:05;;;;;;;5.87;1.87;;;;;;;-144.22;100.00;60274.75;6289619;28;20610;-68
2023/01/06 04:55:08;;;;;;;4.80;1.40;;;;;;;11.36;100.00;60274.75;6291408;28;20715;-68
2023/01/06 04:58:10;;;;;;;4.67;1.70;;;;;;;-144.22;100.00;60274.75;6270200;28;20232;-67
2023/01/06 05:01:13;;;;;;;7.20;1.40;;;;;;;-144.22;100.00;60274.75;6288545;28;20236;-67
2023/01/06 05:04:15;;;;;;;4.90;1.57;;;;;;;-144.22;100.00;60274.75;6291630;28;20790;-68
2023/01/06 05:07:17;;;;;;;7.70;1.70;;;;;;;-144.22;100.00;60274.75;6270228;28;20232;-68
2023/01/06 05:10:19;;;;;;;7.37;1.80;;;;;;;-144.22;100.00;60274.75;6273308;28;20265;-68
2023/01/06 05:13:21;;;;;;;7.37;1.97;;;;;;;-144.22;100.00;60274.75;6275388;28;20724;-68
2023/01/06 05:16:29;;;;;;;5.20;1.67;;;;;;;-144.22;100.00;60274.75;6287406;28;20233;-68
2023/01/06 05:19:31;;;;;;;6.80;2.20;;;;;;;8.77;100.00;60274.75;6288670;28;20233;-68
2023/01/06 05:22:33;;;;;;;10.23;2.37;;;;;;;-144.22;100.00;60274.75;6287802;28;20285;-68
2023/01/06 05:25:35;;;;;;;3.30;1.40;;;;;;;-144.22;100.00;60274.75;6289999;28;20234;-69
2023/01/06 05:28:37;;;;;;;6.80;2.40;;;;;;;-144.22;100.00;60274.75;6288766;28;20241;-68
2023/01/06 05:31:39;;;;;;;7.23;1.93;;;;;;;-144.22;100.00;60274.75;6273884;28;20311;-69
2023/01/06 05:34:41;;;;;;;10.47;2.40;;;;;;;-144.22;100.00;60274.75;6288736;28;20225;-68
2023/01/06 05:37:43;;;;;;;10.10;2.07;;;;;;;-144.22;100.00;60274.75;6292505;28;20556;-68
2023/01/06 05:40:50;;;;;;;8.60;2.00;;;;;;;-144.22;100.00;60274.75;6288876;28;20355;-67
2023/01/06 05:43:52;;;;;;;6.03;1.70;;;;;;;-144.22;100.00;60274.75;6288802;28;20281;-68
2023/01/06 05:46:54;;;;;;;5.80;2.40;;;;;;;-144.22;100.00;60274.75;6277803;28;20367;-68
2023/01/06 05:49:56;;;;;;;5.83;1.70;;;;;;;-144.22;100.00;60274.75;6289204;28;20914;-68
2023/01/06 05:52:58;;;;;;;9.70;2.07;;;;;;;-144.22;100.00;60274.75;6287744;28;20234;-68
2023/01/06 05:56:03;;;;;;;6.30;1.70;;;;;;;-144.22;100.00;60274.75;6289652;28;20755;-68
2023/01/06 05:59:05;;;;;;;7.03;1.70;;;;;;;-144.22;100.00;60274.75;6271504;28;20230;-68
2023/01/06 06:02:07;;;;;;;6.87;1.90;;;;;;;-144.22;100.00;60274.75;6253713;28;20233;-68
2023/01/06 06:05:09;;;;;;;8.50;2.20;;;;;;;-144.22;100.00;60274.75;6289942;28;20324;-68
2023/01/06 06:08:11;;;;;;;9.57;2.07;;;;;;;-144.22;100.00;60274.75;6273281;28;20236;-69
2023/01/06 06:11:16;;;;;;;9.90;2.23;;;;;;;-144.22;100.00;60274.75;6291799;28;20300;-67
2023/01/06 06:14:18;;;;;;;9.53;2.93;;;;;;;-144.22;100.00;60274.75;6291301;28;20701;-68
2023/01/06 06:17:21;;;;;;;5.80;2.03;;;;;;;-144.22;100.00;60274.75;6277681;28;20291;-68
2023/01/06 06:20:23;;;;;;;6.27;2.10;;;;;;;-144.22;100.00;60274.75;6295252;28;20323;-68
2023/01/06 06:23:25;;;;;;;6.87;2.37;;;;;;;-144.22;100.00;60274.75;6291856;28;20233;-69
2023/01/06 06:26:27;;;;;;;9.00;2.10;;;;;;;-144.22;100.00;60274.75;6272492;28;20241;-68
2023/01/06 06:29:29;;;;;;;6.37;2.13;;;;;;;-144.22;100.00;60274.75;6273780;28;20320;-68
2023/01/06 06:32:31;;;;;;;7.87;2.53;;;;;;;11.36;100.00;60274.75;6293276;28;20238;-67
2023/01/06 06:35:33;;;;;;;7.70;2.77;;;;;;;-144.22;100.00;60274.75;6276232;28;20299;-68
2023/01/06 06:38:35;;;;;;;5.07;2.00;;;;;;;-144.22;100.00;60274.75;6276430;28;20635;-68
2023/01/06 06:41:37;;;;;;;8.17;2.30;;;;;;;-144.22;100.00;60274.75;6273621;28;20233;-68
2023/01/06 06:44:39;;;;;;;10.47;2.67;;;;;;;-144.22;100.00;60274.75;6292980;28;20233;-68
2023/01/06 06:47:41;;;;;;;6.37;2.63;;;;;;;-144.22;100.00;60274.75;6258955;28;20234;-69
2023/01/06 06:50:43;;;;;;;8.90;2.53;;;;;;;-144.22;100.00;60274.75;6277377;28;20326;-68
2023/01/06 06:53:46;;;;;;;11.37;2.53;;;;;;;-144.22;100.00;60274.75;6289074;28;20240;-69
2023/01/06 06:56:48;;;;;;;10.13;2.53;;;;;;;7.14;100.00;60274.75;6278830;28;20647;-68
2023/01/06 06:59:51;;;;;;;8.50;2.47;;;;;;;-144.22;100.00;60274.75;6292749;28;20620;-69
2023/01/06 07:02:53;;;;;;;7.47;2.57;;;;;;;-144.22;100.00;60274.75;6291281;28;20676;-68
2023/01/06 07:05:55;;;;;;;6.77;2.13;;;;;;;-144.22;100.00;60274.75;6273470;28;20652;-69
2023/01/06 07:08:57;;;;;;;12.43;2.73;;;;;;;-144.22;100.00;60274.75;6290917;28;20368;-68
2023/01/06 07:11:59;;;;;;;8.00;2.27;;;;;;;-144.22;100.00;60274.75;6273664;28;20233;-69
2023/01/06 07:15:01;;;;;;;8.50;1.90;;;;;;;-144.22;100.00;60274.75;6291434;28;20230;-68
2023/01/06 07:18:05;;;;;;;5.43;2.10;;;;;;;-144.22;100.00;60274.75;6273834;28;20215;-68
2023/01/06 07:21:07;;;;;;;6.47;2.00;;;;;;;-144.22;100.00;60274.75;6292032;28;20214;-69
2023/01/06 07:24:09;;;;;;;5.83;1.80;;;;;;;-144.22;100.00;60274.75;6273061;28;20229;-68
2023/01/06 07:27:11;;;;;;;7.70;2.33;;;;;;;-144.22;100.00;60274.75;6289970;28;20246;-69
2023/01/06 07:30:15;;;;;;;8.73;2.03;;;;;;;-144.22;100.00;60274.75;6293974;28;20342;-68
2023/01/06 07:33:18;;;;;;;12.47;3.13;;;;;;;-144.22;100.00;60274.75;6293015;28;20352;-69
2023/01/06 07:36:20;;;;;;;4.20;2.00;;;;;;;-144.22;100.00;60274.75;6290798;28;20380;-69
2023/01/06 07:39:23;;;;;;;8.33;2.20;;;;;;;-144.22;100.00;60274.75;6291950;28;20295;-69
2023/01/06 07:42:25;;;;;;;6.10;1.83;;;;;;;-144.22;100.00;60274.75;6288372;28;20264;-68
2023/01/06 07:45:27;;;;;;;7.93;2.50;;;;;;;7.55;100.00;60274.75;6291412;28;20609;-69
2023/01/06 07:48:29;;;;;;;4.37;1.80;;;;;;;-144.22;100.00;60274.75;6290880;28;20495;-69
2023/01/06 07:51:31;;;;;;;6.67;2.43;;;;;;;-144.22;100.00;60274.75;6272887;28;20230;-69
2023/01/06 07:54:33;;;;;;;6.63;2.00;;;;;;;-144.22;100.00;60274.75;6288396;28;20225;-69
2023/01/06 07:57:35;;;;;;;3.43;1.63;;;;;;;-144.22;100.00;60274.75;6292236;28;20306;-69
2023/01/06 08:00:37;;;;;;;8.27;1.80;;;;;;;-144.22;100.00;60274.75;6292671;28;20571;-69
2023/01/06 08:03:39;;;;;;;6.03;1.83;;;;;;;-144.22;100.00;60274.75;6272798;28;20232;-69
2023/01/06 08:06:41;;;;;;;2.03;1.27;;;;;;;-144.22;100.00;60274.75;6289000;28;20628;-69
2023/01/06 08:09:43;;;;;;;4.23;1.73;;;;;;;-144.22;100.00;60274.75;6274169;28;20237;-69
2023/01/06 08:12:46;;;;;;;4.87;1.50;;;;;;;-144.22;100.00;60274.75;6290256;28;20664;-69
2023/01/06 08:15:50;;;;;;;5.40;1.00;;;;;;;-144.22;100.00;60274.75;6283045;28;20297;-69
2023/01/06 08:18:53;;;;;;;3.40;1.10;;;;;;;-144.22;100.00;60274.75;6289420;28;20619;-70
2023/01/06 08:21:55;;;;;;;1.40;1.10;;;;;;;-144.22;100.00;60274.75;6272421;28;20226;-69
2023/01/06 08:24:57;;;;;;;2.70;1.00;;;;;;;-144.22;100.00;60274.75;6290401;28;20599;-69
2023/01/06 08:28:00;;;;;;;2.93;1.10;;;;;;;-144.22;100.00;60274.75;6287795;28;20234;-69
2023/01/06 08:31:03;;;;;;;3.00;1.27;;;;;;;-144.22;100.00;60274.75;6289344;28;20233;-68
2023/01/06 08:34:05;;;;;;;2.17;1.00;;;;;;;-144.22;100.00;60274.75;6294004;28;20305;-69
2023/01/06 08:37:07;;;;;;;3.23;1.20;;;;;;;11.36;100.00;60274.75;6296336;28;20831;-69
2023/01/06 08:40:10;;;;;;;4.43;1.07;;;;;;;188.01;100.00;60274.75;6295271;28;20250;-68
2023/01/06 08:43:12;;;;;;;2.13;0.90;;;;;;;-144.22;100.00;60274.75;6292071;28;20237;-69
2023/01/06 08:46:18;;;;;;;1.60;0.80;;;;;;;188.01;100.00;60274.75;6287723;28;20709;-68
2023/01/06 08:49:20;;;;;;;1.83;0.90;;;;;;;-144.22;100.00;60274.75;6279250;28;20309;-69
2023/01/06 08:52:22;;;;;;;3.17;1.00;;;;;;;-144.22;100.00;60274.75;6305485;28;20283;-69
2023/01/06 08:55:54;;;;;;;1.90;0.83;;;;;;;8.88;100.00;60274.75;6287728;28;20572;-68
2023/01/06 08:59:00;;;;;;;3.83;1.20;;;;;;;-144.22;100.00;60274.75;6310442;28;20187;-68
2023/01/06 09:02:02;;;;;;;4.03;1.27;;;;;;;-144.22;100.00;60274.75;6286008;28;20303;-69
2023/01/06 09:05:04;;;;;;;3.83;1.43;;;;;;;-144.22;100.00;60274.75;6289347;28;20258;-69
2023/01/06 09:12:26;;;;;;;4.30;1.70;;;;;;;-144.22;100.00;60274.75;6288215;28;20235;-68
2023/01/06 09:15:29;;;;;;;4.50;1.70;;;;;;;-144.22;100.00;60274.75;6288019;28;20321;-69
2023/01/06 09:18:31;;;;;;;1.97;1.13;;;;;;;-144.22;100.00;60274.75;6291904;28;20218;-69
2023/01/06 09:21:33;;;;;;;3.77;1.40;;;;;;;-144.22;100.00;60274.75;6268017;28;20233;-69
2023/01/06 09:24:35;;;;;;;4.20;1.80;;;;;;;-144.22;100.00;60274.75;6287649;28;20305;-69
2023/01/06 09:27:37;;;;;;;4.57;1.53;;;;;;;-144.22;100.00;60274.75;6286951;28;20243;-69
2023/01/06 09:30:40;;;;;;;4.27;1.30;;;;;;;-144.22;100.00;60274.75;6291983;28;20217;-69
2023/01/06 09:33:42;;;;;;;4.30;1.57;;;;;;;-144.22;100.00;60274.75;6288020;28;20359;-69
2023/01/06 09:36:45;;;;;;;3.53;1.60;;;;;;;-144.22;100.00;60274.75;6270654;28;20343;-69
2023/01/06 09:39:47;;;;;;;2.93;1.40;;;;;;;-144.22;100.00;60274.75;6288327;28;20280;-69
2023/01/06 09:43:12;;;;;;;5.50;1.20;;;;;;;-144.22;100.00;60274.75;6271710;28;20282;-69
2023/01/06 09:46:18;;;;;;;3.97;1.50;;;;;;;-144.22;100.00;60274.75;6268371;28;20254;-69
2023/01/06 09:49:26;;;;;;;5.37;1.47;;;;;;;-144.22;100.00;60274.75;6275828;28;20241;-69
2023/01/06 09:52:43;;;;;;;3.77;1.40;;;;;;;-144.22;100.00;60274.75;6279006;28;20243;-69
2023/01/06 09:55:50;;;;;;;3.47;1.40;;;;;;;-144.22;100.00;60274.75;6295107;28;20373;-69
2023/01/06 09:59:07;;;;;;;3.33;1.40;;;;;;;9.82;100.00;60274.75;6288370;28;20220;-68
2023/01/06 10:02:20;;;;;;;2.40;1.20;;;;;;;-144.22;100.00;60274.75;6281910;28;20229;-69
2023/01/06 10:05:41;;;;;;;3.43;0.90;;;;;;;-144.22;100.00;60274.75;6299596;28;20660;-69
2023/01/06 10:09:20;;;;;;;2.83;1.20;;;;;;;10.39;100.00;60274.75;6294362;28;20736;-68
2023/01/06 10:12:34;;;;;;;1.43;0.90;;;;;;;-144.22;100.00;60274.75;6293253;28;20225;-69
2023/01/06 10:15:57;;;;;;;1.97;0.90;;;;;;;-144.22;100.00;60274.75;6292374;28;20215;-69
2023/01/06 10:19:14;;;;;;;1.13;0.80;;;;;;;21.74;100.00;60274.75;6292786;28;20230;-69
2023/01/06 10:22:45;;;;;;;3.43;1.00;;;;;;;-144.22;100.00;60274.75;6290496;28;20736;-69
2023/01/06 10:25:54;;;;;;;1.30;0.90;;;;;;;-144.22;100.00;60274.75;6277458;28;20244;-68
2023/01/06 10:29:01;;;;;;;3.20;1.13;;;;;;;-144.22;100.00;60274.75;6243540;28;20353;-69
2023/01/06 10:32:07;;;;;;;2.07;0.60;;;;;;;-144.22;100.00;60274.75;6248633;28;20226;-69
2023/01/06 10:35:13;;;;;;;1.53;0.80;;;;;;;-144.22;100.00;60274.75;6243368;28;20269;-69
2023/01/06 10:38:17;;;;;;;2.30;0.83;;;;;;;-144.22;100.00;60274.75;6250886;28;20234;-69
2023/01/06 10:41:31;;;;;;;1.00;0.63;;;;;;;-144.22;100.00;60274.75;6242692;28;20234;-68
2023/01/06 10:44:33;;;;;;;1.50;0.53;;;;;;;-144.22;100.00;60274.75;6243001;28;20237;-69
2023/01/06 10:47:36;;;;;;;2.60;0.70;;;;;;;-144.22;100.00;60274.75;6230848;28;20606;-68
2023/01/06 10:50:38;;;;;;;4.13;1.00;;;;;;;-144.22;100.00;60274.75;6244971;28;20317;-69
2023/01/06 10:53:41;;;;;;;1.73;0.60;;;;;;;-144.22;100.00;60274.75;6239590;28;20607;-68
2023/01/06 10:56:47;;;;;;;1.23;0.80;;;;;;;-144.22;100.00;60274.75;6241279;28;20593;-68
2023/01/06 11:00:21;;;;;;;1.70;0.70;;;;;;;-144.22;100.00;60274.75;6247969;28;20317;-69
2023/01/06 11:03:23;;;;;;;2.53;0.97;;;;;;;-144.22;100.00;60274.75;6244306;28;20319;-69
2023/01/06 11:06:37;;;;;;;3.50;1.00;;;;;;;-144.22;100.00;60274.75;6249042;28;20601;-68
2023/01/06 11:09:43;;;;;;;1.07;0.60;;;;;;;-144.22;100.00;60274.75;6242779;28;20227;-68
2023/01/06 11:12:45;;;;;;;1.90;0.90;;;;;;;-144.22;100.00;60274.75;6242439;28;20386;-68
2023/01/06 11:15:48;;;;;;;2.33;0.90;;;;;;;-144.22;100.00;60274.75;6239476;28;20273;-69
2023/01/06 11:18:54;;;;;;;1.80;0.77;;;;;;;-144.22;100.00;60274.75;6237022;28;20227;-68
2023/01/06 11:21:56;;;;;;;1.60;0.60;;;;;;;-144.22;100.00;60274.75;6242444;28;20734;-69
2023/01/06 11:24:58;;;;;;;1.80;0.70;;;;;;;-144.22;100.00;60274.75;6240041;28;20227;-68
2023/01/06 11:28:16;;;;;;;2.07;0.90;;;;;;;-144.22;100.00;60274.75;6277422;28;20230;-68
2023/01/06 11:31:20;;;;;;;2.43;0.90;;;;;;;-144.22;100.00;60274.75;6290028;28;20279;-67
2023/01/06 11:34:26;;;;;;;1.83;0.87;;;;;;;-144.22;100.00;60274.75;6274915;28;20238;-68
2023/01/06 11:37:55;;;;;;;1.10;0.77;;;;;;;21.74;100.00;60274.75;6273586;28;20320;-68
2023/01/06 11:40:57;;;;;;;1.37;0.70;;;;;;;-144.22;100.00;60274.75;6292023;28;20257;-68
2023/01/06 11:44:15;;;;;;;2.20;0.93;;;;;;;-144.22;100.00;60274.75;6291423;28;20231;-69
2023/01/06 11:47:23;;;;;;;2.53;0.80;;;;;;;12.66;100.00;60274.75;6287571;28;20232;-68
2023/01/06 11:50:26;;;;;;;2.57;0.80;;;;;;;-144.22;100.00;60274.75;6289879;28;20219;-69
2023/01/06 11:53:29;;;;;;;1.80;1.00;;;;;;;-144.22;100.00;60274.75;6287755;28;20594;-69
2023/01/06 11:56:32;;;;;;;1.83;0.80;;;;;;;-144.22;100.00;60274.75;6269430;28;20283;-68
2023/01/06 11:59:53;;;;;;;1.70;1.00;;;;;;;-144.22;100.00;60274.75;6271871;28;20232;-68
2023/01/06 12:03:15;;;;;;;2.27;0.87;;;;;;;-144.22;100.00;60274.75;6289862;28;20229;-68
2023/01/06 12:06:42;;;;;;;3.10;1.00;;;;;;;-144.22;100.00;60274.75;6287319;28;20605;-68
2023/01/06 12:09:46;;;;;;;1.80;0.90;;;;;;;16.55;100.00;60274.75;6281044;28;20226;-69
2023/01/06 12:12:49;;;;;;;1.63;0.93;;;;;;;-144.22;100.00;60274.75;6296779;28;20604;-68
2023/01/06 12:16:06;;;;;;;2.33;1.30;;;;;;;-144.22;100.00;60274.75;6289440;28;20703;-68
2023/01/06 12:19:17;;;;;;;1.83;0.93;;;;;;;-144.22;100.00;60274.75;6289984;28;20584;-69
2023/01/06 12:22:43;;;;;;;2.50;1.10;;;;;;;-144.22;100.00;60274.75;6289523;28;20357;-68
2023/01/06 12:25:48;;;;;;;47.57;3.73;;;;;;;-144.22;100.00;60274.75;6289711;28;20297;-68
2023/01/06 12:28:53;;;;;;;2.73;1.20;;;;;;;-144.22;100.00;60274.75;6289583;28;20285;-68
2023/01/06 12:32:14;;;;;;;4.23;1.40;;;;;;;-144.22;100.00;60274.75;6296510;28;20321;-68
2023/01/06 12:35:24;;;;;;;2.67;1.20;;;;;;;-144.22;100.00;60274.75;6291572;28;20714;-69
2023/01/06 12:38:55;;;;;;;3.63;1.77;;;;;;;-144.22;100.00;60274.75;6288984;28;20717;-68
2023/01/06 12:42:23;;;;;;;3.30;1.00;;;;;;;-144.22;100.00;60274.75;6283113;28;20231;-69
2023/01/06 12:45:35;;;;;;;1.97;0.90;;;;;;;16.55;100.00;60274.75;6288466;28;20701;-68
2023/01/06 12:48:55;;;;;;;3.00;1.13;;;;;;;-144.22;100.00;60274.75;6288934;28;20248;-68
2023/01/06 12:52:03;;;;;;;1.30;1.10;;;;;;;-144.22;100.00;60274.75;6285561;28;20231;-68
2023/01/06 12:55:08;;;;;;;2.13;1.40;;;;;;;-144.22;100.00;60274.75;6289653;28;20253;-68
2023/01/06 12:58:17;;;;;;;1.90;1.20;;;;;;;-144.22;100.00;60274.75;6293087;28;20636;-68
2023/01/06 13:01:45;;;;;;;3.10;1.20;;;;;;;-144.22;100.00;60274.75;6287839;28;20233;-68
2023/01/06 13:04:56;;;;;;;2.67;1.37;;;;;;;-144.22;100.00;60274.75;6290569;28;20229;-68
2023/01/06 13:08:04;;;;;;;2.80;1.50;;;;;;;-144.22;100.00;60274.75;6284703;28;20263;-68
2023/01/06 13:11:28;;;;;;;3.23;1.50;;;;;;;-144.22;100.00;60274.75;6272296;28;20235;-68
2023/01/06 13:15:03;;;;;;;2.37;1.03;;;;;;;-144.22;100.00;60274.75;6288447;28;20249;-68
2023/01/06 13:18:20;;;;;;;3.40;1.20;;;;;;;-144.22;100.00;60274.75;6271396;28;20315;-68
2023/01/06 13:21:23;;;;;;;3.47;1.60;;;;;;;16.55;100.00;60274.75;6294185;28;20227;-68
2023/01/06 13:25:11;;;;;;;3.83;1.20;;;;;;;-144.22;100.00;60274.75;6288946;28;20295;-68
2023/01/06 13:28:42;;;;;;;1.93;1.13;;;;;;;-144.22;100.00;60274.75;6285230;28;20705;-68
2023/01/06 13:32:22;;;;;;;2.30;1.07;;;;;;;12.17;100.00;60274.75;6270700;28;20319;-68
2023/01/06 13:35:56;;;;;;;2.50;1.13;;;;;;;-144.22;100.00;60274.75;6276683;28;20331;-68
2023/01/06 13:39:12;;;;;;;2.87;1.30;;;;;;;-144.22;100.00;60274.75;6296653;28;20329;-68
2023/01/06 13:42:18;;;;;;;2.35;1.00;;;;;;;-144.22;100.00;60274.75;6296150;28;21008;-67
2023/01/06 13:45:28;;;;;;;1.90;1.20;;;;;;;-144.22;100.00;60274.75;6258072;28;20237;-68
2023/01/06 13:48:42;;;;;;;1.57;1.10;;;;;;;-144.22;100.00;60274.75;6285927;28;20217;-67
2023/01/06 13:51:46;;;;;;;2.07;1.23;;;;;;;188.01;100.00;60274.75;6286742;28;20238;-67
2023/01/06 13:54:48;;;;;;;1.47;1.10;;;;;;;-144.22;100.00;60274.75;6271565;28;20226;-67
2023/01/06 13:57:51;;;;;;;2.30;1.10;;;;;;;-144.22;100.00;60274.75;6273275;28;20729;-68
2023/01/06 14:01:19;;;;;;;1.93;1.10;;;;;;;-144.22;100.00;60274.75;6288448;28;20772;-68
2023/01/06 14:04:27;;;;;;;2.67;1.00;;;;;;;10.34;100.00;60274.75;6288921;28;20509;-67
2023/01/06 14:07:38;;;;;;;1.50;1.00;;;;;;;-144.22;100.00;60274.75;6288064;28;20242;-67
2023/01/06 14:10:42;;;;;;;3.83;1.17;;;;;;;-144.22;100.00;60274.75;6286372;28;20386;-68
2023/01/06 14:13:51;;;;;;;1.90;1.10;;;;;;;188.01;100.00;60274.75;6266598;28;20295;-67
2023/01/06 14:16:55;;;;;;;1.10;0.80;;;;;;;-144.22;100.00;60274.75;6291911;28;20263;-67
2023/01/06 14:19:57;;;;;;;1.00;0.90;;;;;;;-144.22;100.00;60274.75;6255641;28;20589;-67
2023/01/06 14:23:01;;;;;;;1.23;0.90;;;;;;;-144.22;100.00;60274.75;6288515;28;20225;-68
2023/01/06 14:26:03;;;;;;;3.27;1.20;;;;;;;8.71;100.00;60274.75;6271338;28;20237;-67